Aérodrome :
LOGIN :

S'inscrire | Disclaimer

   EN    FR    IT 

 










Légende :    VFR   VFR Marginal   IFR   IFR Intensif   IFR Très Intensif
Visi : 
Plafond : 
>= 8 km
>= 3000ft
5 à 8 km
1000 à 3000 ft
1500m à 5 km
500 à 1000 ft
800 à 1500m
200 à 500 ft
< 800m
< 200 ft
Symboles :   Orages  Brouillard  Fortes neiges  Fortes précipitations  Vent > 20 kt
SIGMETs :   Divers  Orages  Givrage  Turbulence  Onde Orograph.  Cendres Volcan.







- Altitude de l'aérodrome : 16 ft
- Code IATA : SDR


LEXJ - Santander Cantabria

DERNIER METAR :
  • 181130Z 00000KT 9999 FEW033 14/11 Q1025

METARs EXPIRÉS :
  • 181100Z 00000KT 9999 FEW033 14/11 Q1025
  • 181030Z 00000KT 9999 FEW033 13/10 Q1025
  • 181000Z 00000KT 9999 SCT033 12/10 Q1025
  • 180930Z VRB01KT 9999 BKN033 10/09 Q1025

TAF TAF LEXJ
Valide du 18 à 09h jusqu'au 19 à 09h UTC


180800Z 1809/1909 VRB04KT 9999 SCT020 TX15/1814Z TN06/1906Z
TEMPO 1811/1821 07010KT
Pas de NOTAMs connus pour ce terrain.



MET'MAP, la Météo Aéronautique d'un coup d'oeil ! - Copyright ORBIFLY Décembre 2007 - Disclaimer

ORBIFLY MET'MAP TEAM :

Programmation & Développement : Alexandra Zaïnal
Conception & Développement : Baudouin d'Aumeries
Co-Programmation & Développement : Marc-Olivier Méhu
Soutien technique & logistique : Manuel Goepfert

Contact : metmap@orbifly.com




SOURCES & CREDITS :

   NOAA